Airfield :
LOGIN :

Register | Disclaimer

   EN    FR    IT 

 










Legend :    VFR   Marginal VFR   IFR   Intensive IFR   Very Intensive IFR
Visi :
Ceiling :
>= 8 km
>= 3000ft
5 to 8 km
1000 to 3000 ft
1500m to 5 km
500 to 1000 ft
800 to 1500m
200 to 500 ft
< 800m
< 200 ft
Symbols :   Thunderstorms  Fog  Heavy snow  Heavy precipitations  Wind > 20 kt
SIGMETs :     Misc.  Thunderstorms  Icing  Turbulence  Mountain Waves  Volcanic Ashes






- Airport Elevation : 1300 ft
- IATA code : LIG


LFBL - Limoges

CURRENT METAR :
  • 291000Z AUTO 30005KT 270V330 9999 SCT021 BKN031 BKN038 11/07 Q1003 NOSIG

EXPIRED METARs :
  • 290930Z AUTO 26005KT 230V290 9999 FEW013 SCT020 BKN031 11/07 Q1003 NOSIG
  • 290900Z AUTO 24006KT 210V270 9999 SCT012 SCT024 BKN031 12/09 Q1003 NOSIG
  • 290830Z AUTO 25005KT 210V300 9999 BKN009 BKN013 BKN020 10/09 Q1003 BECMG SCT020 BKN030
  • 290800Z AUTO 25005KT 210V280 9999 BKN010 BKN026 BKN170 10/09 Q1003 BECMG SCT020 BKN030

TAF TAF LFBL
Valid from the 29 at 06:00 until the 30 at 06:00 UTC


290500Z 2906/3006 27005KT 9999 BKN006 BKN015
PROB40
TEMPO 2906/2908 3000 BR BKN002
BECMG 2908/2910 30007KT 9999 NSW SCT020 BKN030
PROB30
TEMPO 2916/2921 4000 SHRA BKN020TCU
BECMG 3000/3002 VRB03KT 3000 BR BKN002
TEMPO 3002/3006 0400 FG VV///
ATIS : +33 5 55 48 40 37



MET'MAP, your aeronautical weather chart ! - Copyright ORBIFLY December 2007 - Disclaimer

ORBIFLY MET'MAP TEAM :

Programming & Development : Alexandra Zaïnal
Original concept : Baudouin d'Aumeries
Technical & hardware support : Manuel Goepfert
Assistance : Marc-Olivier Méhu




SOURCES & CREDITS :

   NOAA